KWWD/WWD METAR and TAF weather

Enter ICAO airport designator
Station Type Date Time Source
KWWD METAR 2024/04/18 06:56 UTC NOAA

KWWD 180656Z AUTO 02004KT 8SM CLR 12/12 A2987 RMK AO2 SLP116 T01220117


Station Type Date Time Source
KWWD Decoded METAR 2024/04/18 06:56 UTC NOAA

Wildwood, Cape May County Airport, NJ, United States (KWWD) 39-01N 074-55W
Apr 18, 2024 - 02:56 AM EDT / 2024.04.18 0656 UTC
Wind: from the NNE (020 degrees) at 5 MPH (4 KT):0
Visibility: 8 mile(s):0
Sky conditions: clear
Temperature: 54.0 F (12.2 C)
Dew Point: 53.1 F (11.7 C)
Relative Humidity: 96%
Pressure (altimeter): 29.87 in. Hg (1011 hPa)
ob: KWWD 180656Z AUTO 02004KT 8SM CLR 12/12 A2987 RMK AO2 SLP116 T01220117
cycle: 7

Station Type Date Time Source
KWWD TAF UTC NOAA

Error!

Example: see airport list